Terminal Aerodrome Forecast
Issued by NWS

Home | Current Version | Previous Version | Text Only | Print | Product List | Glossary On
Versions: 1 2 3 4 5 6 7 8 9 10 11 12 13
396
FTUS43 KJKL 220541
TAFSJS
TAF
KSJS 220541Z 2206/2306 VRB03KT P6SM SCT150
     FM221400 VRB04KT P6SM FEW045 BKN200=

USA.gov is the U.S. government's official web portal to all federal, state and local government web resources and services.